Time;durP1;ratioP1;P1;durP2;ratioP2;P2;SDS_P1;SDS_P2;PMS_P1;PMS_P2;Temp;Humidity;BMP_temperature;BMP_pressure;BME280_temperature;BME280_humidity;BME280_pressure;Samples;Min_cycle;Max_cycle;Signal;HPM_P1;HPM_P2
2023/01/05 00:01:00;;;;;;;44.33;22.15;;;;;;;11.85;64.93;101688.97;4952576;28;20046;-80
2023/01/05 00:03:26;;;;;;;41.40;24.35;;;;;;;11.91;64.95;101691.25;4953185;28;20035;-81
2023/01/05 00:05:51;;;;;;;36.45;22.63;;;;;;;11.89;64.74;101676.16;4953269;28;20114;-79
2023/01/05 00:08:16;;;;;;;36.42;22.08;;;;;;;11.91;64.67;101672.38;4953256;28;20058;-79
2023/01/05 00:24:26;;;;;;;46.78;22.48;;;;;;;11.70;65.38;101673.00;4952568;28;20187;-80
2023/01/05 00:26:51;;;;;;;39.83;24.42;;;;;;;11.72;65.25;101677.31;4934410;28;20076;-80
2023/01/05 00:29:17;;;;;;;42.13;24.40;;;;;;;11.71;65.31;101672.88;4934629;28;20133;-81
2023/01/05 00:31:42;;;;;;;41.60;24.23;;;;;;;11.66;65.46;101669.63;4951788;28;20037;-80
2023/01/05 00:34:07;;;;;;;47.17;26.73;;;;;;;11.70;65.56;101673.88;4951970;28;20031;-79
2023/01/05 00:36:33;;;;;;;43.58;24.50;;;;;;;11.62;65.75;101651.94;4951693;28;20034;-80
2023/01/05 00:38:58;;;;;;;40.88;22.13;;;;;;;11.63;65.40;101645.56;4951470;28;20074;-80
2023/01/05 00:41:24;;;;;;;43.75;22.55;;;;;;;11.69;65.66;101661.31;4951956;28;20120;-81
2023/01/05 00:43:49;;;;;;;35.05;20.38;;;;;;;11.67;65.46;101651.63;4952000;28;20387;-79
2023/01/05 00:46:15;;;;;;;40.58;21.70;;;;;;;11.65;65.87;101658.97;4952214;28;20031;-80
2023/01/05 00:48:40;;;;;;;39.60;22.40;;;;;;;11.68;65.43;101662.28;4951622;28;20057;-79
2023/01/05 00:51:05;;;;;;;42.90;23.88;;;;;;;11.63;65.70;101644.72;4951979;28;20030;-78
2023/01/05 00:53:31;;;;;;;43.95;24.20;;;;;;;11.62;65.49;101653.78;4951871;28;20423;-79
2023/01/05 00:55:57;;;;;;;37.60;21.15;;;;;;;11.62;65.62;101651.94;4951774;28;20118;-78
2023/01/05 00:58:22;;;;;;;42.88;21.60;;;;;;;11.56;65.86;101638.88;4917568;29;20126;-79
2023/01/05 01:00:49;;;;;;;46.45;22.50;;;;;;;11.62;66.16;101643.00;4951454;28;20023;-79
2023/01/05 01:03:14;;;;;;;43.00;25.70;;;;;;;11.57;66.40;101651.41;4951800;28;20058;-79
2023/01/05 01:05:40;;;;;;;41.15;22.73;;;;;;;11.49;66.25;101634.91;4951542;28;20577;-79
2023/01/05 01:08:05;;;;;;;38.22;23.55;;;;;;;11.47;66.63;101628.75;4951540;28;20037;-80
2023/01/05 01:10:30;;;;;;;40.90;21.70;;;;;;;11.60;66.53;101635.00;4951340;28;20025;-80
2023/01/05 01:12:56;;;;;;;40.35;22.08;;;;;;;11.55;66.82;101631.78;4951127;28;20526;-79
2023/01/05 01:15:21;;;;;;;34.60;21.48;;;;;;;11.58;66.84;101625.31;4951490;28;20051;-79
2023/01/05 01:17:47;;;;;;;36.35;20.73;;;;;;;11.59;66.98;101624.34;4951552;28;20471;-79
2023/01/05 01:20:12;;;;;;;34.20;21.70;;;;;;;11.61;67.20;101619.72;4951181;28;20116;-80
2023/01/05 01:22:38;;;;;;;30.70;18.70;;;;;;;11.46;67.47;101617.13;4950806;28;20033;-79
2023/01/05 01:25:04;;;;;;;33.93;19.50;;;;;;;11.46;67.36;101609.06;4877557;28;1149768;-80
2023/01/05 01:27:30;;;;;;;31.52;19.05;;;;;;;11.44;67.60;101607.41;4950599;28;20454;-79
2023/01/05 01:29:56;;;;;;;34.80;18.83;;;;;;;11.39;68.43;101606.88;4951698;28;20031;-79
2023/01/05 01:32:23;;;;;;;34.53;18.45;;;;;;;11.37;68.02;101593.53;4951716;28;20031;-79
2023/01/05 01:34:49;;;;;;;29.50;18.38;;;;;;;11.48;68.47;101592.75;4951370;28;20027;-81
2023/01/05 01:37:14;;;;;;;28.70;18.60;;;;;;;11.50;68.27;101584.59;4951752;28;20054;-79
2023/01/05 01:39:40;;;;;;;28.98;18.48;;;;;;;11.48;68.08;101582.00;4951393;28;20155;-80
2023/01/05 01:42:12;;;;;;;42.03;18.13;;;;;;;11.51;68.23;101576.38;4951819;28;20039;-79
2023/01/05 01:44:52;;;;;;;;;;;;;;;11.55;68.44;101572.50;4952246;28;20110;-79
2023/01/05 01:47:27;;;;;;;33.97;18.48;;;;;;;11.55;68.36;101580.59;4951800;28;20521;-79
2023/01/05 01:49:54;;;;;;;40.20;19.85;;;;;;;11.50;68.42;101552.25;4951254;28;20038;-80
2023/01/05 01:52:23;;;;;;;35.08;18.90;;;;;;;11.54;68.16;101564.53;4951501;28;20058;-80
2023/01/05 01:54:50;;;;;;;37.42;19.77;;;;;;;11.47;67.82;101564.09;4917296;29;20414;-80
2023/01/05 01:57:16;;;;;;;34.53;19.13;;;;;;;11.37;68.56;101549.56;4951551;28;20116;-79
2023/01/05 01:59:42;;;;;;;28.50;18.58;;;;;;;11.50;68.11;101563.03;4951699;28;20035;-79
2023/01/05 02:02:07;;;;;;;30.70;19.23;;;;;;;11.42;67.97;101544.69;4951812;28;20031;-80
2023/01/05 02:04:36;;;;;;;29.95;18.95;;;;;;;11.44;68.13;101557.09;4951413;28;20054;-79
2023/01/05 02:07:02;;;;;;;38.30;20.70;;;;;;;11.33;68.42;101545.34;4951740;28;20449;-80
2023/01/05 02:09:28;;;;;;;42.30;21.55;;;;;;;11.38;68.79;101546.75;4951299;28;20032;-79
2023/01/05 02:12:14;;;;;;;39.35;21.73;;;;;;;11.37;68.65;101541.47;4951475;28;20094;-79
2023/01/05 02:14:52;;;;;;;39.05;22.38;;;;;;;11.40;68.63;101546.66;4951194;28;20514;-80
2023/01/05 02:17:29;;;;;;;39.35;22.25;;;;;;;11.42;68.48;101540.19;4951399;28;20084;-78
2023/01/05 02:20:38;;;;;;;42.78;25.50;;;;;;;11.46;68.62;101532.75;4951145;28;20039;-80
2023/01/05 02:23:09;;;;;;;54.88;24.23;;;;;;;11.40;68.46;101525.97;4951173;28;20035;-80
2023/01/05 02:25:53;;;;;;;47.47;26.63;;;;;;;11.34;68.23;101520.97;4954359;28;20043;-80
2023/01/05 02:28:34;;;;;;;42.78;26.48;;;;;;;11.25;68.73;101516.25;4954958;28;20050;-80
2023/01/05 02:31:02;;;;;;;47.60;25.23;;;;;;;11.28;68.41;101515.19;4955164;28;20031;-81
2023/01/05 02:34:00;;;;;;;43.83;24.25;;;;;;;11.26;68.92;101517.13;4954947;28;20051;-79
2023/01/05 02:36:38;;;;;;;46.28;24.55;;;;;;;11.07;68.61;101500.53;4954925;28;20043;-79
2023/01/05 02:39:16;;;;;;;53.20;25.05;;;;;;;11.18;69.47;101509.59;4954864;28;20035;-79
2023/01/05 02:41:55;;;;;;;40.90;23.65;;;;;;;11.22;69.41;101494.91;4954662;28;20118;-79
2023/01/05 02:44:20;;;;;;;46.13;24.35;;;;;;;11.26;69.32;101500.97;4937580;29;20403;-79
2023/01/05 02:46:57;;;;;;;39.70;24.73;;;;;;;11.26;69.36;101496.44;4955539;28;20035;-80
2023/01/05 02:49:23;;;;;;;34.92;20.42;;;;;;;11.27;69.02;101492.78;4973035;28;20034;-79
2023/01/05 02:51:54;;;;;;;41.78;23.63;;;;;;;11.25;69.42;101493.88;4979346;28;20049;-79
2023/01/05 02:54:44;;;;;;;44.97;25.27;;;;;;;11.25;69.52;101483.09;4971506;28;20019;-79
2023/01/05 02:57:16;;;;;;;42.80;24.77;;;;;;;11.24;69.14;101478.66;4957163;28;20491;-78
2023/01/05 02:59:46;;;;;;;51.95;25.00;;;;;;;11.29;68.94;101474.69;4957107;28;20054;-79
2023/01/05 03:02:19;;;;;;;53.55;25.48;;;;;;;11.25;69.03;101458.88;4954598;28;20035;-78
2023/01/05 03:04:51;;;;;;;38.95;25.75;;;;;;;11.35;68.74;101466.16;4921169;28;20055;-79
2023/01/05 03:07:24;;;;;;;45.65;26.38;;;;;;;11.36;69.00;101467.03;4954349;28;20019;-79
2023/01/05 03:09:50;;;;;;;47.85;27.33;;;;;;;11.33;69.19;101467.25;4954299;28;20112;-78
2023/01/05 03:15:28;;;;;;;49.20;27.95;;;;;;;11.33;68.82;101459.16;4954233;28;20038;-79
2023/01/05 03:17:59;;;;;;;54.00;29.38;;;;;;;11.35;68.61;101463.47;4954018;28;20023;-80
2023/01/05 03:20:28;;;;;;;52.60;29.43;;;;;;;11.25;68.76;101429.25;4954157;28;20431;-81
2023/01/05 03:37:29;;;;;;;71.97;29.10;;;;;;;11.36;68.89;101432.88;4953827;28;20062;-80
2023/01/05 03:39:55;;;;;;;48.67;28.65;;;;;;;11.36;68.83;101432.88;4953525;28;20483;-79
2023/01/05 03:42:21;;;;;;;56.10;29.65;;;;;;;11.36;69.12;101432.00;4953548;28;20031;-79
2023/01/05 03:44:48;;;;;;;58.55;30.23;;;;;;;11.33;69.00;101433.09;4953610;28;20035;-80
2023/01/05 03:47:14;;;;;;;49.33;28.85;;;;;;;11.29;68.45;101425.34;4953764;28;20399;-80
2023/01/05 03:49:40;;;;;;;60.78;30.55;;;;;;;11.23;68.92;101425.78;4953312;28;20050;-80
2023/01/05 03:52:05;;;;;;;60.88;33.78;;;;;;;11.13;68.94;101419.34;4953349;28;20038;-80
2023/01/05 03:54:31;;;;;;;65.63;32.42;;;;;;;11.05;69.77;101421.69;4953624;28;20029;-80
2023/01/05 03:56:56;;;;;;;59.33;33.92;;;;;;;11.14;69.34;101421.03;4953313;28;20118;-79
2023/01/05 03:59:22;;;;;;;64.97;32.03;;;;;;;11.10;69.61;101416.88;4953101;28;20034;-81
2023/01/05 04:01:47;;;;;;;55.25;31.88;;;;;;;11.11;69.84;101415.88;4953362;28;20041;-79
2023/01/05 04:04:13;;;;;;;89.28;34.53;;;;;;;11.04;69.71;101406.53;4953123;28;20031;-80
2023/01/05 04:06:38;;;;;;;73.13;32.47;;;;;;;11.09;69.19;101413.31;4953330;28;20527;-80
2023/01/05 04:09:04;;;;;;;57.97;34.50;;;;;;;11.05;70.03;101419.88;4953007;28;20058;-79
2023/01/05 04:11:30;;;;;;;65.68;34.65;;;;;;;11.01;69.97;101396.00;4952847;28;20031;-80
2023/01/05 04:13:55;;;;;;;65.72;34.15;;;;;;;11.12;69.72;101414.91;4953313;28;20038;-81
2023/01/05 04:16:21;;;;;;;67.22;36.63;;;;;;;11.05;69.39;101400.16;4952222;28;20035;-79
2023/01/05 04:18:47;;;;;;;65.95;35.90;;;;;;;11.15;69.88;101406.63;4934161;29;20047;-82
2023/01/05 04:21:13;;;;;;;70.68;34.70;;;;;;;11.14;69.99;101404.91;4952756;28;20035;-81
2023/01/05 04:23:38;;;;;;;60.88;33.65;;;;;;;11.08;70.34;101410.72;4952934;29;20023;-80
2023/01/05 04:26:04;;;;;;;60.03;34.80;;;;;;;11.14;70.29;101412.97;4953044;29;20057;-79
2023/01/05 04:28:30;;;;;;;77.75;35.25;;;;;;;11.03;70.78;101402.97;4952933;29;20042;-80
2023/01/05 04:30:55;;;;;;;62.67;34.17;;;;;;;11.03;70.92;101410.19;4935842;29;20034;-80
2023/01/05 04:33:22;;;;;;;67.05;35.22;;;;;;;11.06;71.21;101402.75;4953253;29;20031;-81
2023/01/05 04:35:48;;;;;;;53.72;32.33;;;;;;;11.09;71.20;101402.53;4953296;29;20098;-82
2023/01/05 04:38:13;;;;;;;65.20;32.78;;;;;;;11.14;71.18;101402.19;4952612;29;20093;-82
2023/01/05 04:40:39;;;;;;;66.47;34.72;;;;;;;11.06;71.52;101394.69;4954631;29;20031;-82
2023/01/05 04:43:05;;;;;;;71.25;33.63;;;;;;;11.20;71.44;101409.84;4953954;29;20030;-81
2023/01/05 04:45:31;;;;;;;63.67;36.35;;;;;;;11.18;71.31;101411.78;4953284;29;20087;-81
2023/01/05 04:47:57;;;;;;;65.05;38.00;;;;;;;11.21;70.88;101407.06;4951677;28;20027;-82
2023/01/05 04:50:22;;;;;;;76.57;44.03;;;;;;;11.23;71.15;101410.47;4952647;28;20041;-82
2023/01/05 04:52:48;;;;;;;79.10;46.97;;;;;;;11.30;71.03;101408.22;4952509;29;20035;-81
2023/01/05 04:55:13;;;;;;;82.70;49.72;;;;;;;11.24;70.92;101397.88;4952666;29;20031;-80
2023/01/05 04:57:39;;;;;;;89.80;47.47;;;;;;;11.30;70.98;101394.75;4952215;29;20035;-80
2023/01/05 05:00:05;;;;;;;82.15;48.03;;;;;;;11.28;70.65;101394.00;4952433;28;20095;-81
2023/01/05 05:02:31;;;;;;;81.35;46.15;;;;;;;11.20;71.00;101388.28;4952852;29;20050;-80
2023/01/05 05:04:56;;;;;;;81.40;44.63;;;;;;;11.30;71.07;101394.75;4952265;29;20061;-84
2023/01/05 05:07:22;;;;;;;80.82;43.92;;;;;;;11.28;70.75;101383.25;4935391;29;20114;-82
2023/01/05 05:09:48;;;;;;;82.65;44.28;;;;;;;11.33;70.77;101384.63;4951936;29;20031;-79
2023/01/05 05:12:14;;;;;;;73.45;40.65;;;;;;;11.31;71.13;101377.63;4952356;28;20043;-82
2023/01/05 05:14:40;;;;;;;71.90;41.22;;;;;;;11.32;70.97;101382.03;4952487;28;20089;-82
2023/01/05 05:17:05;;;;;;;77.82;41.10;;;;;;;11.29;70.86;101371.47;4952458;28;20471;-83
2023/01/05 05:19:31;;;;;;;85.53;39.63;;;;;;;11.24;70.65;101362.88;4954297;28;20023;-88
2023/01/05 05:21:56;;;;;;;88.05;39.22;;;;;;;11.17;71.16;101327.47;4951788;28;20035;-83
2023/01/05 05:24:22;;;;;;;75.15;41.30;;;;;;;11.35;70.80;101355.72;4934562;28;20058;-83
2023/01/05 05:26:47;;;;;;;70.25;37.80;;;;;;;11.39;70.83;101359.06;4951768;28;20554;-84
2023/01/05 05:29:13;;;;;;;65.35;37.45;;;;;;;11.32;70.93;101357.78;4951916;28;20031;-82
2023/01/05 05:31:38;;;;;;;75.40;37.67;;;;;;;11.29;70.88;101349.94;4951976;28;20031;-89
2023/01/05 05:34:04;;;;;;;72.57;36.50;;;;;;;11.35;70.83;101355.72;4951986;28;20055;-84
2023/01/05 05:36:29;;;;;;;68.03;37.42;;;;;;;11.30;70.89;101338.19;4952290;28;20023;-84
2023/01/05 05:38:55;;;;;;;68.28;37.67;;;;;;;11.21;70.69;101325.41;4952426;28;20023;-84
2023/01/05 05:41:21;;;;;;;72.75;36.08;;;;;;;11.25;70.83;101343.06;4951478;28;20415;-81
2023/01/05 05:43:46;;;;;;;69.03;36.03;;;;;;;11.26;71.11;101334.00;4951926;28;20046;-81
2023/01/05 05:46:12;;;;;;;76.93;38.10;;;;;;;11.24;71.17;101352.09;4951696;28;20082;-81
2023/01/05 05:48:37;;;;;;;77.80;37.58;;;;;;;11.23;71.31;101345.84;4951359;28;20114;-79
2023/01/05 05:51:03;;;;;;;83.95;40.80;;;;;;;11.28;71.02;101342.84;4951926;28;20459;-81
2023/01/05 05:53:28;;;;;;;95.90;39.70;;;;;;;11.23;70.97;101332.41;4951552;28;20035;-80
2023/01/05 05:55:54;;;;;;;89.18;39.60;;;;;;;11.29;71.02;101328.38;4951786;28;20042;-80
2023/01/05 05:58:19;;;;;;;80.80;39.30;;;;;;;11.26;70.75;101317.84;4952087;28;20459;-80
2023/01/05 06:00:45;;;;;;;86.65;40.22;;;;;;;11.27;70.96;101330.34;4955277;28;20027;-80
2023/01/05 06:03:11;;;;;;;86.82;38.88;;;;;;;11.30;71.58;101316.66;4955626;28;20031;-80
2023/01/05 06:05:36;;;;;;;79.60;39.75;;;;;;;11.35;71.04;101315.34;4955734;28;20020;-80
2023/01/05 06:08:02;;;;;;;71.85;40.30;;;;;;;11.37;70.65;101309.84;4955599;28;20035;-81
2023/01/05 06:10:27;;;;;;;84.82;39.83;;;;;;;11.40;71.25;101313.19;4955720;28;20021;-81
2023/01/05 06:12:54;;;;;;;86.22;41.15;;;;;;;11.43;70.51;101329.13;4955772;28;20549;-80
2023/01/05 06:15:20;;;;;;;74.57;36.63;;;;;;;11.43;70.77;101304.88;4955715;28;20154;-80
2023/01/05 06:17:47;;;;;;;74.35;36.03;;;;;;;11.48;70.65;101308.06;4955261;28;20109;-80
2023/01/05 06:20:13;;;;;;;85.63;40.63;;;;;;;11.41;70.47;101295.16;4937126;29;20043;-80
2023/01/05 06:22:40;;;;;;;78.70;41.55;;;;;;;11.42;70.61;101296.91;4955277;28;20046;-81
2023/01/05 06:25:05;;;;;;;80.82;38.85;;;;;;;11.39;71.03;101297.13;4955023;28;20446;-80
2023/01/05 06:27:31;;;;;;;87.00;41.78;;;;;;;11.33;71.18;101297.56;4955593;28;20023;-80
2023/01/05 06:29:56;;;;;;;74.40;40.22;;;;;;;11.48;71.12;101301.81;4955283;28;20035;-82
2023/01/05 06:32:22;;;;;;;77.55;43.97;;;;;;;11.52;70.70;101297.94;4955336;28;20135;-80
2023/01/05 06:34:47;;;;;;;78.95;41.47;;;;;;;11.54;70.93;101300.50;4938438;28;20035;-80
2023/01/05 06:37:13;;;;;;;84.25;40.08;;;;;;;11.59;70.45;101293.78;4955067;28;20380;-81
2023/01/05 06:39:38;;;;;;;71.70;38.00;;;;;;;11.63;70.37;101289.91;4955168;28;20042;-82
2023/01/05 06:42:03;;;;;;;79.50;41.78;;;;;;;11.55;70.88;101270.78;4955208;28;20039;-82
2023/01/05 06:44:29;;;;;;;87.60;42.33;;;;;;;11.61;70.02;101283.78;4955349;28;20031;-83
2023/01/05 06:46:54;;;;;;;72.05;42.70;;;;;;;11.66;70.45;101286.13;4956209;28;20442;-81
2023/01/05 06:49:20;;;;;;;81.28;42.92;;;;;;;11.69;69.95;101285.88;4959093;28;20035;-81
2023/01/05 06:51:45;;;;;;;88.72;42.50;;;;;;;11.44;70.66;101279.63;4961165;28;20075;-81
2023/01/05 06:54:11;;;;;;;83.57;42.92;;;;;;;11.69;70.54;101289.44;4977989;28;20019;-81
2023/01/05 06:56:36;;;;;;;79.55;41.58;;;;;;;11.63;70.11;101272.88;4979722;28;20080;-81
2023/01/05 06:59:02;;;;;;;81.03;45.25;;;;;;;11.63;69.76;101281.81;4971831;28;20118;-81
2023/01/05 07:01:27;;;;;;;86.28;43.70;;;;;;;11.67;70.20;101279.75;4959710;28;20024;-81
2023/01/05 07:03:53;;;;;;;100.32;45.28;;;;;;;11.83;70.23;101281.19;4959621;28;20031;-81
2023/01/05 07:06:18;;;;;;;71.72;41.53;;;;;;;11.83;69.64;101285.75;4956185;28;20521;-81
2023/01/05 07:08:44;;;;;;;73.93;42.83;;;;;;;11.90;69.53;101287.84;4955160;28;20086;-82
2023/01/05 07:11:09;;;;;;;85.68;42.17;;;;;;;11.82;69.52;101274.09;4954457;28;20059;-81
2023/01/05 07:13:35;;;;;;;81.40;40.67;;;;;;;11.94;69.56;101275.84;4955005;28;20027;-81
2023/01/05 07:16:01;;;;;;;78.47;38.47;;;;;;;11.95;69.26;101263.25;4954584;28;20034;-81
2023/01/05 07:18:26;;;;;;;66.93;40.28;;;;;;;11.87;69.47;101263.81;4954643;28;20050;-81
2023/01/05 07:20:51;;;;;;;67.07;38.97;;;;;;;11.87;69.31;101261.13;4954224;28;20050;-82
2023/01/05 07:23:17;;;;;;;57.15;35.40;;;;;;;11.88;68.83;101270.94;4953992;28;20035;-81
2023/01/05 07:25:42;;;;;;;64.65;35.05;;;;;;;11.85;69.09;101264.91;4954624;28;20054;-81
2023/01/05 07:28:08;;;;;;;67.05;34.13;;;;;;;11.83;69.32;101254.22;4954555;28;20058;-82
2023/01/05 07:30:33;;;;;;;62.33;35.65;;;;;;;11.88;69.84;101261.97;4954230;28;20066;-82
2023/01/05 07:32:59;;;;;;;76.22;36.25;;;;;;;11.84;68.95;101253.28;4954355;28;20051;-83
2023/01/05 07:35:26;;;;;;;66.25;35.92;;;;;;;11.81;69.42;101236.47;4954286;28;20090;-82
2023/01/05 07:37:54;;;;;;;77.55;36.78;;;;;;;11.88;69.07;101241.28;4953796;28;20046;-83
2023/01/05 07:40:19;;;;;;;61.53;35.42;;;;;;;11.97;69.06;101245.09;4953824;28;20039;-81
2023/01/05 07:42:49;;;;;;;62.30;34.55;;;;;;;12.00;68.62;101240.34;4953998;28;20034;-80
2023/01/05 07:45:15;;;;;;;100.45;52.63;;;;;;;11.97;68.54;101240.56;4953865;28;20135;-81
2023/01/05 07:47:40;;;;;;;58.97;34.22;;;;;;;12.07;68.66;101234.47;4953803;28;20040;-82
2023/01/05 07:50:06;;;;;;;64.80;33.15;;;;;;;12.05;68.56;101244.53;4953399;28;20027;-81
2023/01/05 07:52:31;;;;;;;59.42;34.42;;;;;;;12.05;68.29;101214.88;4953684;28;20113;-82
2023/01/05 07:54:57;;;;;;;64.45;36.55;;;;;;;12.19;68.53;101233.50;4953960;28;20155;-81
2023/01/05 07:57:22;;;;;;;60.78;33.08;;;;;;;12.24;67.77;101232.16;4953529;28;20129;-81
2023/01/05 07:59:48;;;;;;;61.63;32.13;;;;;;;12.22;67.89;101227.88;4953560;28;20465;-81
2023/01/05 08:02:13;;;;;;;76.47;37.47;;;;;;;12.36;67.71;101235.72;4935335;28;20050;-81
2023/01/05 08:04:39;;;;;;;62.92;32.95;;;;;;;12.31;67.66;101224.44;4953609;28;20035;-83
2023/01/05 08:07:09;;;;;;;61.53;36.88;;;;;;;12.38;67.35;101212.19;4953148;28;20023;-81
2023/01/05 08:12:20;;;;;;;54.53;29.70;;;;;;;12.44;67.29;101204.47;4953031;28;20477;-81
2023/01/05 08:14:45;;;;;;;61.53;34.08;;;;;;;12.48;66.88;101207.75;4953311;28;20039;-81
2023/01/05 08:17:11;;;;;;;66.85;31.02;;;;;;;12.58;67.15;101208.75;4953247;28;20085;-81
2023/01/05 08:19:37;;;;;;;55.00;31.90;;;;;;;12.65;66.20;101199.19;4953191;28;20126;-81
2023/01/05 08:22:02;;;;;;;66.15;31.70;;;;;;;12.63;66.39;101182.25;4952580;28;20062;-81
2023/01/05 08:24:27;;;;;;;73.80;38.58;;;;;;;12.81;65.93;101188.84;4953448;28;20055;-81
2023/01/05 08:26:53;;;;;;;67.63;33.25;;;;;;;12.73;66.13;101176.97;4952894;28;20413;-81
2023/01/05 08:29:18;;;;;;;60.22;30.95;;;;;;;12.86;65.85;101175.84;4952988;28;20473;-82
2023/01/05 08:31:44;;;;;;;56.60;29.52;;;;;;;12.85;65.68;101178.66;4952890;28;20547;-81
2023/01/05 08:34:09;;;;;;;61.63;30.08;;;;;;;12.96;65.64;101171.41;4952700;28;20444;-82
2023/01/05 08:36:35;;;;;;;46.25;27.48;;;;;;;12.93;65.10;101160.88;4953095;28;20067;-81
2023/01/05 08:39:00;;;;;;;52.55;30.23;;;;;;;12.98;65.08;101158.63;4953090;28;20494;-83
2023/01/05 08:41:29;;;;;;;54.92;30.30;;;;;;;13.08;65.28;101148.81;4952745;28;20106;-81
2023/01/05 08:43:57;;;;;;;56.70;31.13;;;;;;;13.21;64.70;101158.59;4952698;28;20023;-82
2023/01/05 08:46:25;;;;;;;60.45;31.30;;;;;;;13.31;64.12;101148.72;4952626;28;20031;-82
2023/01/05 08:48:52;;;;;;;52.78;29.02;;;;;;;13.34;64.16;101137.66;4935212;28;20406;-82
2023/01/05 08:51:19;;;;;;;43.30;26.95;;;;;;;13.39;63.61;101138.97;4952518;28;20186;-82
2023/01/05 08:53:45;;;;;;;47.47;25.67;;;;;;;13.44;62.95;101138.59;4952817;28;20032;-82
2023/01/05 08:56:10;;;;;;;53.45;24.00;;;;;;;13.46;63.05;101128.50;4952583;28;20450;-81
2023/01/05 08:58:37;;;;;;;48.40;28.92;;;;;;;13.55;62.69;101125.00;4952624;28;20035;-82
2023/01/05 09:01:07;;;;;;;40.00;25.25;;;;;;;13.65;62.54;101107.00;4952704;28;20031;-82
2023/01/05 09:03:33;;;;;;;39.35;24.95;;;;;;;13.62;61.90;101099.16;4952390;28;20031;-82
2023/01/05 09:06:01;;;;;;;40.40;23.00;;;;;;;13.53;61.79;101091.84;4952324;28;20398;-82
2023/01/05 09:08:28;;;;;;;37.67;23.20;;;;;;;13.53;62.09;101089.16;4952587;28;20117;-82
2023/01/05 09:10:54;;;;;;;43.70;24.25;;;;;;;13.64;61.66;101083.66;4952227;28;20035;-82
2023/01/05 09:13:19;;;;;;;43.35;22.55;;;;;;;13.78;61.33;101086.03;4952577;28;20635;-81
2023/01/05 09:15:45;;;;;;;42.30;22.92;;;;;;;13.74;61.25;101087.28;4952217;28;20042;-82
2023/01/05 09:18:10;;;;;;;40.38;23.65;;;;;;;13.86;61.16;101080.81;4952282;28;20110;-81
2023/01/05 09:20:35;;;;;;;43.40;24.55;;;;;;;13.80;60.78;101075.94;4952194;28;20110;-81
2023/01/05 09:23:01;;;;;;;42.83;24.80;;;;;;;13.87;60.73;101077.13;4952146;28;20034;-83
2023/01/05 09:25:26;;;;;;;39.25;24.48;;;;;;;13.81;60.74;101077.66;4951776;28;20078;-83
2023/01/05 09:27:52;;;;;;;43.95;24.55;;;;;;;13.86;60.62;101059.19;4951917;28;20024;-82
2023/01/05 09:30:18;;;;;;;50.50;28.33;;;;;;;13.92;60.91;101047.81;4934427;28;20039;-82
2023/01/05 09:32:43;;;;;;;52.60;25.40;;;;;;;14.04;60.68;101049.44;4952303;28;20031;-82
2023/01/05 09:35:09;;;;;;;52.95;25.42;;;;;;;14.08;60.19;101045.47;4952404;28;20035;-83
2023/01/05 09:37:34;;;;;;;45.28;25.83;;;;;;;14.14;60.02;101044.06;4952004;28;20026;-82
2023/01/05 09:39:59;;;;;;;46.13;25.88;;;;;;;14.08;59.70;101031.94;4952272;28;20049;-82
2023/01/05 09:42:29;;;;;;;41.00;24.60;;;;;;;14.16;60.09;101032.09;4951979;28;20027;-83
2023/01/05 09:45:03;;;;;;;43.05;25.05;;;;;;;14.28;59.65;101013.91;4951423;28;20514;-83
2023/01/05 09:47:35;;;;;;;59.47;25.55;;;;;;;14.45;59.22;101013.28;4951821;28;20051;-81
2023/01/05 09:50:01;;;;;;;49.35;27.38;;;;;;;14.34;58.82;100977.38;4951896;28;20035;-82
2023/01/05 09:52:28;;;;;;;45.95;25.67;;;;;;;14.30;58.99;100981.31;4951484;28;20078;-82
2023/01/05 09:54:53;;;;;;;50.40;27.58;;;;;;;14.28;59.08;100967.06;4951786;28;20118;-83
2023/01/05 09:57:26;;;;;;;41.63;24.63;;;;;;;14.43;58.35;100966.53;4951838;28;20118;-82
2023/01/05 09:59:57;;;;;;;51.03;26.20;;;;;;;14.49;58.15;100973.25;4952350;28;20073;-82
2023/01/05 10:02:32;;;;;;;39.83;24.92;;;;;;;14.26;58.25;100956.38;4952128;28;20023;-83
2023/01/05 10:04:59;;;;;;;44.10;25.52;;;;;;;14.37;58.18;100955.44;4951862;28;20422;-82
2023/01/05 10:07:40;;;;;;;38.97;22.15;;;;;;;14.36;58.10;100960.00;4951776;28;20027;-82
2023/01/05 10:10:44;;;;;;;46.83;24.83;;;;;;;14.42;58.14;100953.16;4951341;28;20505;-82
2023/01/05 10:13:25;;;;;;;46.55;23.45;;;;;;;14.49;57.74;100932.66;4873544;29;20101;-81
2023/01/05 10:15:53;;;;;;;37.60;21.77;;;;;;;14.58;57.59;100926.38;4873711;29;20037;-82
2023/01/05 10:18:28;;;;;;;38.40;22.05;;;;;;;14.45;57.54;100909.56;4872873;29;20076;-82
2023/01/05 10:21:06;;;;;;;34.65;20.45;;;;;;;14.56;57.53;100909.41;4873611;29;20390;-83
2023/01/05 10:24:06;;;;;;;33.58;21.13;;;;;;;14.75;57.26;100903.13;4873639;29;20513;-83
2023/01/05 10:26:53;;;;;;;45.13;22.83;;;;;;;14.91;57.10;100896.13;4817867;29;20061;-82
2023/01/05 10:29:28;;;;;;;32.05;18.73;;;;;;;14.93;56.06;100879.72;4817947;29;20523;-82
2023/01/05 10:32:27;;;;;;;36.08;18.80;;;;;;;14.98;56.05;100893.69;4818339;29;20035;-83
2023/01/05 10:34:59;;;;;;;42.42;20.20;;;;;;;14.98;56.55;100880.97;4763791;30;20502;-82
2023/01/05 10:38:06;;;;;;;29.80;19.70;;;;;;;15.09;55.89;100877.25;4763692;30;20044;-83
2023/01/05 10:40:43;;;;;;;35.78;19.27;;;;;;;15.16;55.47;100879.22;4728699;30;20383;-84
2023/01/05 10:43:41;;;;;;;33.63;20.02;;;;;;;15.05;56.00;100857.72;4729065;30;20091;-82
2023/01/05 10:46:10;;;;;;;31.23;20.58;;;;;;;15.23;55.59;100863.19;4731290;30;20449;-82
2023/01/05 10:48:36;;;;;;;44.58;20.60;;;;;;;15.18;55.44;100852.84;4732382;30;20044;-83
2023/01/05 10:51:03;;;;;;;42.13;22.25;;;;;;;15.26;55.69;100833.97;4758567;30;20036;-82
2023/01/05 10:53:32;;;;;;;43.63;24.50;;;;;;;15.44;55.66;100835.88;4767765;30;20044;-82
2023/01/05 10:56:24;;;;;;;34.50;19.85;;;;;;;15.70;55.22;100853.16;4767754;30;20040;-82
2023/01/05 10:59:06;;;;;;;39.83;21.42;;;;;;;15.59;54.55;100848.81;4750447;30;20048;-83
2023/01/05 11:01:32;;;;;;;34.83;20.80;;;;;;;15.65;54.61;100844.66;4759358;30;20032;-83
2023/01/05 11:04:14;;;;;;;43.28;20.48;;;;;;;15.64;54.18;100826.66;4774553;30;20059;-83
2023/01/05 11:06:40;;;;;;;36.40;19.77;;;;;;;15.77;53.94;100830.72;4774582;30;20039;-82
2023/01/05 11:09:11;;;;;;;36.50;20.33;;;;;;;15.91;54.14;100832.03;4757355;30;20557;-82
2023/01/05 11:11:38;;;;;;;28.85;19.33;;;;;;;16.03;54.01;100828.09;4788615;29;20057;-82
2023/01/05 11:14:04;;;;;;;37.85;20.63;;;;;;;16.12;53.12;100824.44;4806816;29;20047;-81
2023/01/05 11:16:32;;;;;;;31.15;18.30;;;;;;;16.08;52.61;100798.66;4814880;29;20041;-81
2023/01/05 11:19:03;;;;;;;32.83;19.10;;;;;;;16.07;52.83;100799.66;4876466;29;20037;-82
2023/01/05 11:21:34;;;;;;;36.88;18.85;;;;;;;16.14;52.55;100795.31;4876553;29;20029;-83
2023/01/05 11:24:01;;;;;;;40.17;19.70;;;;;;;16.23;52.36;100794.38;4875874;29;20181;-83
2023/01/05 11:26:35;;;;;;;33.80;19.35;;;;;;;16.15;52.82;100788.84;4895089;29;20040;-83
2023/01/05 11:29:10;;;;;;;48.65;20.70;;;;;;;16.16;52.27;100778.84;4894459;29;20413;-83
2023/01/05 11:31:51;;;;;;;38.38;19.30;;;;;;;16.30;52.10;100778.28;4894573;29;20148;-83
2023/01/05 11:34:19;;;;;;;34.90;19.90;;;;;;;16.19;52.11;100771.25;4894803;29;20484;-83
2023/01/05 11:37:00;;;;;;;75.72;38.22;;;;;;;16.20;52.32;100766.69;4951957;28;20043;-84
2023/01/05 11:39:32;;;;;;;36.17;20.98;;;;;;;16.07;52.08;100771.66;4954083;28;20085;-84
2023/01/05 11:42:16;;;;;;;41.13;21.80;;;;;;;16.00;52.22;100771.41;4953920;28;20031;-85
2023/01/05 11:44:44;;;;;;;31.52;19.27;;;;;;;15.93;52.28;100764.91;4954110;28;20090;-84
2023/01/05 11:47:20;;;;;;;38.60;21.75;;;;;;;15.89;52.74;100747.25;4955651;28;20031;-84
2023/01/05 11:49:47;;;;;;;38.53;19.83;;;;;;;15.92;52.85;100752.38;4954199;28;20484;-83